Terminal Aerodrome Forecast
Issued by NWS

Home | Current Version | Previous Version | Text Only | Print | Product List | Glossary On
Versions: 1 2 3 4 5 6 7 8 9 10 11 12 13 14 15 16
000
FTUS42 TJSJ 240541
TAFISX
TAF
TISX 240541Z 2406/2506 05008KT P6SM VCSH SCT080
     FM241400 07015G22KT P6SM SCT030
     FM242300 05012KT P6SM FEW025=

USA.gov is the U.S. government's official web portal to all federal, state and local government web resources and services.